Time;durP1;ratioP1;P1;durP2;ratioP2;P2;SDS_P1;SDS_P2;PMS_P1;PMS_P2;Temp;Humidity;BMP_temperature;BMP_pressure;BME280_temperature;BME280_humidity;BME280_pressure;Samples;Min_cycle;Max_cycle;Signal;HPM_P1;HPM_P2
2023/08/19 00:01:30;;;;;;;6.00;5.70;;;24.00;54.70;;;;;;5031884;28;20210;-75
2023/08/19 00:03:56;;;;;;;6.10;5.80;;;24.00;54.70;;;;;;5032740;28;20724;-77
2023/08/19 00:06:33;;;;;;;5.80;5.50;;;24.00;54.70;;;;;;5013191;28;20225;-75
2023/08/19 00:09:00;;;;;;;5.73;5.53;;;24.00;54.70;;;;;;5033927;28;20308;-76
2023/08/19 00:11:26;;;;;;;6.47;6.17;;;24.00;54.70;;;;;;5029303;28;20474;-76
2023/08/19 00:13:51;;;;;;;6.43;6.13;;;24.00;54.70;;;;;;5033280;28;21027;-76
2023/08/19 00:16:17;;;;;;;6.30;6.00;;;24.00;54.60;;;;;;5028144;28;20723;-76
2023/08/19 00:18:43;;;;;;;6.23;5.93;;;24.00;54.70;;;;;;5013722;28;20228;-76
2023/08/19 00:21:08;;;;;;;5.63;5.40;;;24.00;54.70;;;;;;5030271;28;20241;-77
2023/08/19 00:23:34;;;;;;;6.47;6.17;;;24.00;54.70;;;;;;5032345;28;20226;-77
2023/08/19 00:26:00;;;;;;;6.03;5.73;;;24.00;54.70;;;;;;5032638;28;20598;-77
2023/08/19 00:28:25;;;;;;;6.43;6.03;;;24.00;54.70;;;;;;5013741;28;20979;-77
2023/08/19 00:30:51;;;;;;;6.00;5.70;;;24.00;54.70;;;;;;5011023;28;20210;-76
2023/08/19 00:33:16;;;;;;;6.40;6.00;;;24.00;54.70;;;;;;5031986;28;20222;-77
2023/08/19 00:35:42;;;;;;;5.90;5.60;;;24.00;54.70;;;;;;5032830;28;20279;-77
2023/08/19 00:38:08;;;;;;;6.03;5.70;;;24.00;54.70;;;;;;5031206;28;20225;-77
2023/08/19 00:40:33;;;;;;;5.80;5.50;;;24.00;54.70;;;;;;5030588;28;20296;-77
2023/08/19 00:42:59;;;;;;;5.70;5.40;;;24.00;54.80;;;;;;5030855;28;20226;-76
2023/08/19 00:45:24;;;;;;;6.13;5.83;;;24.00;54.70;;;;;;5032060;28;21991;-77
2023/08/19 00:47:50;;;;;;;6.03;5.73;;;24.00;54.80;;;;;;5034548;28;20325;-77
2023/08/19 00:50:16;;;;;;;5.60;5.40;;;24.00;54.70;;;;;;5035628;28;20295;-77
2023/08/19 00:52:44;;;;;;;6.17;5.87;;;24.00;54.70;;;;;;5018352;28;21501;-77
2023/08/19 00:55:10;;;;;;;5.90;5.60;;;24.00;54.80;;;;;;5034244;28;21300;-77
2023/08/19 00:57:37;;;;;;;6.23;5.90;;;24.00;54.80;;;;;;5032629;28;20506;-77
2023/08/19 01:00:04;;;;;;;6.17;5.87;;;24.00;54.80;;;;;;5017013;28;20695;-76
2023/08/19 01:02:29;;;;;;;5.37;5.17;;;24.00;55.60;;;;;;5035167;28;20458;-76
2023/08/19 01:04:55;;;;;;;5.80;5.50;;;24.00;54.80;;;;;;5037911;28;20477;-77
2023/08/19 01:07:28;;;;;;;6.50;6.20;;;24.00;54.70;;;;;;5014525;28;20723;-76
2023/08/19 01:10:27;;;;;;;6.07;5.80;;;24.00;54.80;;;;;;5034975;28;20618;-75
2023/08/19 01:13:07;;;;;;;5.60;5.30;;;24.00;54.70;;;;;;5031041;28;20466;-77
2023/08/19 01:15:36;;;;;;;5.70;5.40;;;24.00;54.80;;;;;;5035681;28;20462;-77
2023/08/19 01:18:04;;;;;;;6.07;5.77;;;24.00;54.80;;;;;;5036650;28;20467;-77
2023/08/19 01:20:31;;;;;;;5.40;5.10;;;24.00;54.80;;;;;;5034709;28;20469;-77
2023/08/19 01:23:05;;;;;;;6.13;5.83;;;24.00;54.80;;;;;;5036483;28;20993;-77
2023/08/19 01:25:31;;;;;;;6.10;5.80;;;24.00;54.80;;;;;;5033000;28;20542;-77
2023/08/19 01:28:04;;;;;;;5.90;5.60;;;24.00;54.80;;;;;;5036298;28;20475;-77
2023/08/19 01:30:33;;;;;;;5.50;5.30;;;24.00;54.80;;;;;;5034826;28;20528;-76
2023/08/19 01:33:02;;;;;;;5.67;5.37;;;23.90;54.70;;;;;;5034267;28;20527;-76
2023/08/19 01:35:30;;;;;;;5.93;5.60;;;23.90;54.70;;;;;;5034868;28;20498;-77
2023/08/19 01:38:03;;;;;;;5.30;5.10;;;24.00;54.90;;;;;;5015502;28;20455;-77
2023/08/19 01:40:30;;;;;;;5.40;5.10;;;24.00;54.80;;;;;;5037175;28;20467;-77
2023/08/19 01:42:56;;;;;;;5.20;5.00;;;23.90;54.70;;;;;;5014822;28;21036;-77
2023/08/19 01:45:22;;;;;;;6.50;6.20;;;24.00;54.80;;;;;;5032370;28;20681;-77
2023/08/19 01:47:53;;;;;;;5.50;5.20;;;23.90;54.70;;;;;;5013818;28;21513;-77
2023/08/19 01:50:19;;;;;;;5.70;5.50;;;24.00;54.70;;;;;;5030790;28;20466;-77
2023/08/19 01:52:45;;;;;;;5.70;5.40;;;24.00;54.70;;;;;;5033058;28;20459;-77
2023/08/19 01:55:10;;;;;;;5.47;5.27;;;24.00;54.80;;;;;;5032886;28;20221;-77
2023/08/19 01:57:36;;;;;;;6.47;5.97;;;24.00;55.10;;;;;;5034449;28;20226;-77
2023/08/19 02:00:03;;;;;;;5.13;4.93;;;24.00;54.80;;;;;;5031199;28;20222;-77
2023/08/19 02:02:29;;;;;;;5.40;5.20;;;24.00;54.80;;;;;;5031743;28;20226;-76
2023/08/19 02:04:55;;;;;;;5.60;5.30;;;23.90;54.70;;;;;;5033370;28;22647;-77
2023/08/19 02:07:20;;;;;;;6.13;5.73;;;23.90;54.80;;;;;;5032149;28;20266;-77
2023/08/19 02:09:46;;;;;;;5.70;5.50;;;23.90;54.70;;;;;;5029106;28;20640;-77
2023/08/19 02:12:12;;;;;;;5.53;5.23;;;23.90;54.80;;;;;;5012910;28;21093;-77
2023/08/19 02:14:37;;;;;;;5.43;5.20;;;24.00;54.80;;;;;;5032702;28;20218;-75
2023/08/19 02:17:03;;;;;;;5.77;5.47;;;24.00;54.80;;;;;;5029625;28;20229;-75
2023/08/19 02:19:28;;;;;;;5.30;5.00;;;24.00;54.80;;;;;;5032167;28;20222;-76
2023/08/19 02:21:54;;;;;;;5.90;5.50;;;24.00;54.80;;;;;;5028598;28;20309;-75
2023/08/19 02:24:20;;;;;;;5.60;5.30;;;23.90;54.70;;;;;;5013835;28;20225;-76
2023/08/19 02:26:45;;;;;;;5.30;5.00;;;24.00;54.80;;;;;;5030059;28;20237;-75
2023/08/19 02:29:11;;;;;;;5.00;4.80;;;23.90;54.70;;;;;;5032902;28;20369;-76
2023/08/19 02:31:37;;;;;;;5.07;4.87;;;24.00;54.80;;;;;;5031740;28;20218;-77
2023/08/19 02:34:02;;;;;;;5.27;5.07;;;23.90;54.70;;;;;;5028217;28;20303;-76
2023/08/19 02:36:28;;;;;;;6.50;6.10;;;24.00;54.80;;;;;;5028803;28;20226;-75
2023/08/19 02:38:54;;;;;;;5.77;5.47;;;23.90;54.70;;;;;;5037038;28;21047;-75
2023/08/19 02:41:19;;;;;;;4.83;4.63;;;23.90;54.70;;;;;;5032706;28;21752;-75
2023/08/19 02:43:45;;;;;;;5.47;5.13;;;23.90;54.70;;;;;;5017134;28;20221;-75
2023/08/19 02:46:10;;;;;;;5.53;5.33;;;23.90;54.80;;;;;;5030736;28;20223;-74
2023/08/19 02:48:36;;;;;;;5.87;5.57;;;23.90;54.70;;;;;;5036633;28;20232;-75
2023/08/19 02:51:01;;;;;;;5.50;5.20;;;23.90;54.80;;;;;;5034500;28;20240;-77
2023/08/19 02:53:28;;;;;;;5.13;4.83;;;23.90;54.80;;;;;;5033510;28;20229;-75
2023/08/19 02:55:54;;;;;;;5.70;5.40;;;23.90;54.80;;;;;;5032754;28;20880;-75
2023/08/19 02:58:19;;;;;;;5.53;5.23;;;23.90;54.80;;;;;;5035059;28;20463;-76
2023/08/19 03:00:46;;;;;;;4.80;4.60;;;23.90;54.80;;;;;;5033604;28;20237;-76
2023/08/19 03:03:12;;;;;;;5.50;5.20;;;23.90;54.80;;;;;;5035656;28;20233;-74
2023/08/19 03:05:39;;;;;;;5.23;5.03;;;23.90;54.70;;;;;;5013993;28;20544;-74
2023/08/19 03:08:06;;;;;;;5.33;5.10;;;23.90;54.80;;;;;;5017678;28;20467;-76
2023/08/19 03:10:33;;;;;;;5.40;5.10;;;24.00;54.90;;;;;;5033817;28;20456;-76
2023/08/19 03:12:59;;;;;;;5.97;5.63;;;23.90;54.80;;;;;;5034140;28;20494;-76
2023/08/19 03:15:25;;;;;;;5.37;5.03;;;23.90;54.80;;;;;;5013786;28;20640;-76
2023/08/19 03:17:50;;;;;;;5.37;5.10;;;23.90;55.50;;;;;;5034515;28;20225;-75
2023/08/19 03:20:16;;;;;;;5.10;4.80;;;23.90;54.70;;;;;;5029709;28;20230;-76
2023/08/19 03:22:41;;;;;;;5.53;5.33;;;23.90;54.80;;;;;;5033387;28;20241;-77
2023/08/19 03:25:07;;;;;;;4.77;4.57;;;23.90;54.80;;;;;;5015358;28;21137;-74
2023/08/19 03:27:32;;;;;;;6.07;5.57;;;23.90;54.80;;;;;;5034048;28;20237;-75
2023/08/19 03:29:58;;;;;;;6.40;5.90;;;23.90;54.80;;;;;;5016229;28;20671;-77
2023/08/19 03:32:23;;;;;;;6.60;6.20;;;23.90;54.80;;;;;;5032830;28;20217;-75
2023/08/19 03:34:49;;;;;;;5.90;5.60;;;23.90;54.70;;;;;;5033597;28;20704;-77
2023/08/19 03:37:15;;;;;;;5.33;5.13;;;23.90;54.70;;;;;;5032022;28;20217;-77
2023/08/19 03:39:40;;;;;;;5.50;5.20;;;23.90;54.80;;;;;;5031696;28;20249;-77
2023/08/19 03:42:06;;;;;;;5.80;5.50;;;23.90;54.80;;;;;;5030876;28;20214;-77
2023/08/19 03:44:31;;;;;;;5.33;5.13;;;23.90;54.80;;;;;;5034440;28;20237;-75
2023/08/19 03:46:57;;;;;;;5.77;5.47;;;23.90;54.80;;;;;;5032057;28;20253;-75
2023/08/19 03:49:22;;;;;;;5.80;5.27;;;23.90;54.80;;;;;;5034759;28;20673;-77
2023/08/19 03:51:48;;;;;;;5.10;4.90;;;23.90;55.20;;;;;;5031512;28;20206;-75
2023/08/19 03:54:13;;;;;;;5.83;5.53;;;23.90;54.80;;;;;;5033774;28;20218;-76
2023/08/19 03:56:39;;;;;;;5.30;5.00;;;23.90;54.90;;;;;;5033192;28;20307;-75
2023/08/19 03:59:04;;;;;;;5.60;5.07;;;23.90;54.80;;;;;;5033671;28;20759;-75
2023/08/19 04:01:30;;;;;;;5.00;4.80;;;23.90;54.80;;;;;;5031114;28;20221;-77
2023/08/19 04:03:55;;;;;;;5.23;4.90;;;23.90;54.80;;;;;;5031474;28;20245;-75
2023/08/19 04:06:21;;;;;;;4.93;4.73;;;23.90;54.80;;;;;;5012327;28;20210;-74
2023/08/19 04:08:46;;;;;;;5.77;5.47;;;23.90;54.80;;;;;;5037327;28;20823;-75
2023/08/19 04:11:12;;;;;;;5.17;4.97;;;23.90;54.80;;;;;;5020068;28;20221;-75
2023/08/19 04:13:37;;;;;;;4.83;4.37;;;23.90;54.80;;;;;;5017586;28;20238;-73
2023/08/19 04:16:06;;;;;;;5.10;4.90;;;23.90;54.70;;;;;;5040660;28;20213;-74
2023/08/19 04:18:34;;;;;;;5.00;4.70;;;23.90;54.90;;;;;;5033714;28;21547;-74
2023/08/19 04:21:06;;;;;;;4.73;4.53;;;23.90;54.80;;;;;;5033332;28;20887;-74
2023/08/19 04:23:33;;;;;;;5.37;5.07;;;23.90;54.80;;;;;;5040334;28;20831;-73
2023/08/19 04:25:59;;;;;;;4.50;4.30;;;23.90;54.80;;;;;;5038859;28;20536;-73
2023/08/19 04:28:25;;;;;;;5.10;4.90;;;23.90;54.80;;;;;;5042375;28;20810;-74
2023/08/19 04:30:52;;;;;;;4.87;4.63;;;23.90;54.70;;;;;;5041490;28;20504;-74
2023/08/19 04:33:17;;;;;;;4.60;4.40;;;24.00;54.80;;;;;;5043882;28;20221;-74
2023/08/19 04:35:43;;;;;;;4.80;4.57;;;24.00;54.70;;;;;;5041056;28;20458;-74
2023/08/19 04:38:09;;;;;;;4.37;4.07;;;24.00;54.80;;;;;;5042297;28;20230;-74
2023/08/19 04:40:35;;;;;;;4.90;4.60;;;24.00;54.70;;;;;;5039227;28;20462;-74
2023/08/19 04:43:00;;;;;;;4.20;4.00;;;24.00;54.70;;;;;;5014218;28;20300;-75
2023/08/19 04:45:26;;;;;;;4.20;4.00;;;24.00;54.60;;;;;;5031517;28;20225;-75
2023/08/19 04:47:51;;;;;;;4.83;4.53;;;24.00;54.60;;;;;;5033220;28;22493;-75
2023/08/19 04:50:19;;;;;;;4.80;4.60;;;24.00;54.60;;;;;;5030253;28;20230;-75
2023/08/19 04:52:44;;;;;;;3.90;3.70;;;24.00;54.60;;;;;;5029521;28;20222;-74
2023/08/19 04:55:10;;;;;;;4.50;4.30;;;24.00;54.60;;;;;;5034599;28;20482;-74
2023/08/19 04:57:36;;;;;;;4.10;3.90;;;24.00;54.60;;;;;;5031850;28;20228;-73
2023/08/19 05:00:03;;;;;;;4.57;4.17;;;24.00;54.50;;;;;;5032249;28;20248;-74
2023/08/19 05:02:29;;;;;;;4.80;4.20;;;24.00;54.50;;;;;;5013192;28;20236;-73
2023/08/19 05:04:54;;;;;;;3.50;3.33;;;24.00;54.50;;;;;;5036568;28;20463;-75
2023/08/19 05:07:20;;;;;;;4.47;4.17;;;24.00;54.50;;;;;;5029520;28;20269;-75
2023/08/19 05:09:45;;;;;;;3.97;3.77;;;24.00;54.50;;;;;;5022790;28;20574;-75
2023/08/19 05:12:11;;;;;;;3.73;3.53;;;24.10;54.60;;;;;;5010405;28;20217;-75
2023/08/19 05:14:36;;;;;;;4.37;4.17;;;24.10;55.30;;;;;;5030357;28;20600;-75
2023/08/19 05:17:02;;;;;;;3.87;3.67;;;24.10;54.50;;;;;;5026836;28;21279;-74
2023/08/19 05:19:27;;;;;;;4.93;4.63;;;24.10;54.50;;;;;;5032846;28;20226;-75
2023/08/19 05:21:53;;;;;;;3.57;3.37;;;24.10;54.50;;;;;;5025506;28;20807;-75
2023/08/19 05:24:18;;;;;;;3.80;3.60;;;24.10;54.50;;;;;;5031716;28;20209;-76
2023/08/19 05:26:44;;;;;;;4.37;4.13;;;24.10;54.50;;;;;;5031532;28;20222;-76
2023/08/19 05:29:14;;;;;;;3.90;3.70;;;24.10;54.50;;;;;;5029489;28;20240;-75
2023/08/19 05:31:40;;;;;;;3.80;3.60;;;24.10;54.50;;;;;;5028588;28;20466;-76
2023/08/19 05:34:09;;;;;;;4.30;4.10;;;24.10;54.50;;;;;;5030784;28;20469;-75
2023/08/19 05:36:34;;;;;;;3.80;3.60;;;24.10;54.50;;;;;;5008479;28;21000;-76
2023/08/19 05:39:00;;;;;;;3.93;3.73;;;24.10;54.50;;;;;;5009314;28;20545;-77
2023/08/19 05:41:26;;;;;;;3.90;3.70;;;24.10;54.60;;;;;;5027094;28;20562;-77
2023/08/19 05:43:52;;;;;;;3.83;3.63;;;24.10;54.50;;;;;;5029730;28;20225;-77
2023/08/19 05:46:17;;;;;;;3.60;3.40;;;24.10;54.50;;;;;;5029444;28;20849;-76
2023/08/19 05:48:43;;;;;;;3.83;3.53;;;24.10;54.50;;;;;;5015073;28;21268;-75
2023/08/19 05:51:08;;;;;;;3.63;3.43;;;24.10;54.50;;;;;;5032527;28;20308;-75
2023/08/19 05:53:34;;;;;;;3.40;3.30;;;24.10;54.60;;;;;;5029331;28;20580;-76
2023/08/19 05:56:00;;;;;;;3.70;3.50;;;24.10;54.50;;;;;;5030444;28;20222;-77
2023/08/19 05:58:26;;;;;;;3.70;3.50;;;24.10;54.50;;;;;;5031402;28;20225;-76
2023/08/19 06:00:59;;;;;;;3.80;3.60;;;24.10;54.50;;;;;;5011541;28;20474;-78
2023/08/19 06:03:25;;;;;;;4.17;3.97;;;24.10;54.60;;;;;;5010511;28;20326;-80
2023/08/19 06:05:51;;;;;;;4.03;3.83;;;24.10;54.60;;;;;;5013116;28;20569;-76
2023/08/19 06:08:17;;;;;;;3.97;3.77;;;24.10;54.60;;;;;;5003196;28;20263;-81
2023/08/19 06:10:44;;;;;;;4.00;3.80;;;24.10;54.50;;;;;;5014276;28;20275;-79
2023/08/19 06:13:13;;;;;;;3.17;3.07;;;24.10;54.60;;;;;;5036053;28;20252;-75
2023/08/19 06:15:39;;;;;;;3.50;3.30;;;24.10;54.60;;;;;;5031485;28;20869;-75
2023/08/19 06:18:05;;;;;;;4.30;4.10;;;24.10;54.60;;;;;;5016135;28;20466;-76
2023/08/19 06:20:30;;;;;;;3.73;3.53;;;24.10;54.60;;;;;;5038828;28;20512;-75
2023/08/19 06:22:56;;;;;;;4.10;3.90;;;24.10;54.60;;;;;;5039575;28;20226;-79
2023/08/19 06:25:21;;;;;;;3.63;3.43;;;24.10;54.60;;;;;;5039282;28;20311;-82
2023/08/19 06:27:47;;;;;;;3.67;3.47;;;24.00;54.50;;;;;;5031354;28;21003;-79
2023/08/19 06:30:13;;;;;;;3.93;3.60;;;24.10;54.50;;;;;;5026902;28;20721;-80
2023/08/19 06:32:39;;;;;;;3.77;3.57;;;24.10;54.60;;;;;;5014500;28;20222;-79
2023/08/19 06:35:05;;;;;;;3.53;3.33;;;24.10;54.50;;;;;;5032565;28;20837;-74
2023/08/19 06:37:33;;;;;;;3.67;3.47;;;24.10;54.50;;;;;;5031548;28;20260;-75
2023/08/19 06:40:09;;;;;;;4.23;3.93;;;24.10;54.50;;;;;;5029221;28;20998;-77
2023/08/19 06:42:39;;;;;;;3.57;3.27;;;24.10;54.50;;;;;;5032010;28;20462;-81
2023/08/19 06:45:06;;;;;;;3.77;3.57;;;24.10;54.50;;;;;;5026701;28;21048;-81
2023/08/19 06:47:37;;;;;;;3.53;3.33;;;24.10;54.80;;;;;;5002296;28;20475;-80
2023/08/19 06:50:03;;;;;;;3.50;3.30;;;24.10;54.50;;;;;;5033245;28;20493;-80
2023/08/19 06:52:28;;;;;;;2.97;2.77;;;24.10;54.50;;;;;;5025745;28;20447;-79
2023/08/19 06:54:54;;;;;;;3.50;3.30;;;24.10;54.50;;;;;;5026601;28;20465;-80
2023/08/19 06:57:35;;;;;;;3.30;3.10;;;24.10;54.50;;;;;;5026607;28;20408;-81
2023/08/19 07:00:09;;;;;;;3.57;3.37;;;24.10;54.50;;;;;;5008260;28;20222;-78
2023/08/19 07:02:37;;;;;;;3.80;3.60;;;24.10;54.50;;;;;;5025751;28;20544;-78
2023/08/19 07:05:10;;;;;;;3.70;3.50;;;24.10;54.50;;;;;;5027955;28;20502;-79
2023/08/19 07:07:38;;;;;;;3.57;3.30;;;24.10;54.50;;;;;;5031316;28;20482;-79
2023/08/19 07:10:05;;;;;;;3.93;3.73;;;24.10;54.50;;;;;;5030465;28;20447;-79
2023/08/19 07:12:32;;;;;;;3.50;3.40;;;24.10;54.60;;;;;;5010808;28;20566;-80
2023/08/19 07:14:58;;;;;;;3.47;3.27;;;24.10;54.50;;;;;;5029571;28;20443;-79
2023/08/19 07:17:27;;;;;;;3.33;3.00;;;24.10;54.50;;;;;;5008753;28;20470;-79
2023/08/19 07:19:54;;;;;;;3.30;3.10;;;24.10;54.50;;;;;;5028401;28;20225;-78
2023/08/19 07:22:24;;;;;;;3.10;3.00;;;24.10;54.50;;;;;;5009238;28;20554;-79
2023/08/19 07:24:51;;;;;;;3.40;3.20;;;24.10;54.50;;;;;;5014037;28;20513;-79
2023/08/19 07:27:20;;;;;;;3.60;3.40;;;24.10;54.50;;;;;;5026212;28;20470;-78
2023/08/19 07:29:50;;;;;;;3.93;3.73;;;24.10;54.50;;;;;;5026643;28;20477;-78
2023/08/19 07:32:18;;;;;;;2.97;2.83;;;24.10;54.60;;;;;;5032506;28;20462;-79
2023/08/19 07:34:44;;;;;;;3.40;3.20;;;24.10;54.60;;;;;;5032716;28;20451;-79
2023/08/19 07:37:10;;;;;;;3.60;3.40;;;24.10;54.60;;;;;;5026807;28;20447;-77
2023/08/19 07:39:36;;;;;;;3.90;3.70;;;24.10;54.60;;;;;;5031629;28;22579;-78
2023/08/19 07:42:02;;;;;;;3.37;3.17;;;24.10;54.50;;;;;;5030828;28;20448;-80
2023/08/19 07:44:27;;;;;;;3.97;3.77;;;24.10;54.60;;;;;;5028876;28;20237;-82
2023/08/19 07:46:53;;;;;;;3.73;3.53;;;24.10;54.60;;;;;;5014399;28;20227;-81
2023/08/19 07:49:18;;;;;;;3.37;3.17;;;24.10;54.50;;;;;;5031530;28;21780;-81
2023/08/19 07:51:45;;;;;;;3.47;3.33;;;24.10;54.60;;;;;;5021595;28;20670;-82
2023/08/19 07:54:10;;;;;;;3.57;3.37;;;24.10;54.60;;;;;;5044074;28;20218;-83
2023/08/19 07:56:36;;;;;;;3.30;3.10;;;24.10;54.60;;;;;;5036242;28;20846;-81
2023/08/19 07:59:03;;;;;;;3.20;3.00;;;24.10;54.60;;;;;;5017264;28;20233;-84
2023/08/19 08:01:28;;;;;;;3.33;3.13;;;24.10;54.60;;;;;;5017658;28;20228;-80
2023/08/19 08:03:54;;;;;;;3.33;3.20;;;24.10;54.60;;;;;;5010398;28;20467;-84
2023/08/19 08:06:20;;;;;;;3.23;3.03;;;24.10;54.60;;;;;;5013366;28;20336;-82
2023/08/19 08:08:45;;;;;;;2.90;2.80;;;24.10;54.70;;;;;;5016112;28;20230;-82
2023/08/19 08:11:11;;;;;;;3.73;3.53;;;24.10;54.60;;;;;;5035690;28;20906;-80
2023/08/19 08:13:36;;;;;;;3.40;3.20;;;24.10;54.60;;;;;;5020051;28;20261;-81
2023/08/19 08:16:03;;;;;;;3.63;3.43;;;24.10;54.60;;;;;;5034865;28;20261;-80
2023/08/19 08:18:28;;;;;;;11.07;3.70;;;24.10;54.60;;;;;;5036600;28;20233;-80
2023/08/19 08:20:54;;;;;;;3.40;3.20;;;24.10;54.60;;;;;;5014487;28;20544;-79
2023/08/19 08:23:20;;;;;;;4.00;3.80;;;24.20;54.70;;;;;;5033260;28;20292;-74
2023/08/19 08:25:45;;;;;;;4.53;4.20;;;24.20;55.70;;;;;;5012145;28;20238;-76
2023/08/19 08:28:11;;;;;;;8.23;3.40;;;24.10;56.40;;;;;;5025470;28;20241;-73
2023/08/19 08:30:37;;;;;;;4.10;3.80;;;24.20;66.60;;;;;;5026452;28;20233;-71
2023/08/19 08:33:03;;;;;;;3.63;3.43;;;24.20;54.70;;;;;;5024678;28;20218;-72
2023/08/19 08:35:29;;;;;;;3.93;3.63;;;24.20;54.80;;;;;;5026085;28;20508;-70
2023/08/19 08:37:54;;;;;;;5.10;3.90;;;24.20;54.80;;;;;;5020768;28;20264;-72
2023/08/19 08:40:20;;;;;;;5.30;3.67;;;24.20;54.80;;;;;;5026360;28;20668;-70
2023/08/19 08:42:46;;;;;;;3.40;3.20;;;24.20;54.90;;;;;;5005337;28;20217;-71
2023/08/19 08:45:12;;;;;;;4.00;3.60;;;24.20;54.90;;;;;;5022228;28;20597;-72
2023/08/19 08:47:40;;;;;;;3.87;3.67;;;24.20;55.00;;;;;;5028228;28;20467;-70
2023/08/19 08:50:06;;;;;;;3.53;3.33;;;24.20;55.00;;;;;;5034081;28;20301;-72
2023/08/19 08:52:32;;;;;;;3.67;3.47;;;24.20;55.10;;;;;;5031115;28;20439;-71
2023/08/19 08:55:00;;;;;;;3.27;3.07;;;24.20;55.00;;;;;;5030589;28;20441;-72
2023/08/19 08:57:26;;;;;;;3.67;3.47;;;24.20;55.10;;;;;;5039633;28;21008;-72
2023/08/19 08:59:53;;;;;;;3.20;2.90;;;24.20;55.00;;;;;;5032176;28;20530;-71
2023/08/19 09:02:19;;;;;;;3.93;3.63;;;24.20;55.10;;;;;;5037964;28;20174;-72
2023/08/19 09:04:46;;;;;;;3.70;3.47;;;24.20;55.10;;;;;;5025416;28;21185;-72
2023/08/19 09:07:25;;;;;;;3.60;3.40;;;24.20;55.10;;;;;;5034035;28;20179;-74
2023/08/19 09:09:52;;;;;;;3.50;3.20;;;24.20;55.10;;;;;;5039110;28;20473;-71
2023/08/19 09:12:20;;;;;;;3.70;3.40;;;24.20;55.00;;;;;;5022994;28;20427;-71
2023/08/19 09:14:51;;;;;;;4.10;3.67;;;24.20;55.00;;;;;;5021816;28;20492;-69
2023/08/19 09:17:17;;;;;;;3.30;3.00;;;24.20;55.10;;;;;;5031794;28;20522;-69
2023/08/19 09:19:43;;;;;;;3.53;3.30;;;24.20;55.00;;;;;;5020499;28;20518;-69
2023/08/19 09:22:14;;;;;;;3.70;3.50;;;24.20;55.10;;;;;;5035479;28;20477;-69
2023/08/19 09:24:40;;;;;;;3.07;2.93;;;24.30;55.10;;;;;;5034700;28;20481;-69
2023/08/19 09:27:06;;;;;;;3.03;2.83;;;24.20;55.00;;;;;;5032499;28;20451;-69
2023/08/19 09:29:32;;;;;;;3.83;3.63;;;24.20;55.00;;;;;;5034195;28;20271;-69
2023/08/19 09:31:58;;;;;;;3.37;3.17;;;24.20;55.00;;;;;;5013266;28;20501;-70
2023/08/19 09:34:24;;;;;;;2.80;2.70;;;24.20;55.10;;;;;;5032854;28;20570;-70
2023/08/19 09:36:54;;;;;;;3.23;3.03;;;24.20;55.10;;;;;;5011335;28;20256;-70
2023/08/19 09:39:20;;;;;;;3.70;3.50;;;24.20;55.10;;;;;;5031753;28;20288;-70
2023/08/19 09:41:45;;;;;;;4.00;3.80;;;24.20;55.10;;;;;;5030690;28;20475;-70
2023/08/19 09:44:13;;;;;;;3.43;3.20;;;24.20;55.10;;;;;;5032702;28;20467;-70
2023/08/19 09:46:39;;;;;;;3.10;2.90;;;24.20;55.80;;;;;;5008633;28;20230;-70
2023/08/19 09:49:04;;;;;;;3.33;3.13;;;24.20;55.10;;;;;;5014278;28;21011;-70
2023/08/19 09:51:31;;;;;;;3.63;3.43;;;24.20;55.00;;;;;;5032752;28;20466;-70
2023/08/19 09:54:07;;;;;;;4.53;3.43;;;24.20;55.10;;;;;;5034667;28;20233;-70
2023/08/19 09:56:32;;;;;;;3.37;3.17;;;24.20;55.10;;;;;;5020708;28;20470;-70
2023/08/19 09:58:58;;;;;;;3.50;3.30;;;24.20;55.00;;;;;;5025325;28;20475;-69
2023/08/19 10:01:25;;;;;;;3.30;3.10;;;24.20;55.10;;;;;;5027055;28;20228;-70
2023/08/19 10:03:52;;;;;;;3.67;3.47;;;24.20;55.10;;;;;;5024841;28;20214;-70
2023/08/19 10:06:23;;;;;;;3.47;3.27;;;24.20;55.00;;;;;;5029590;28;20466;-70
2023/08/19 10:08:54;;;;;;;5.10;3.40;;;24.30;55.10;;;;;;5031862;28;20826;-70
2023/08/19 10:11:20;;;;;;;3.80;3.50;;;24.30;55.10;;;;;;5031161;28;20467;-70
2023/08/19 10:13:47;;;;;;;3.27;3.10;;;24.30;55.10;;;;;;5017390;28;20554;-70
2023/08/19 10:16:13;;;;;;;3.70;3.50;;;24.30;55.10;;;;;;5039234;28;20462;-69
2023/08/19 10:18:42;;;;;;;3.37;3.17;;;24.30;55.00;;;;;;5034213;28;20554;-70
2023/08/19 10:21:10;;;;;;;3.50;3.30;;;24.30;55.80;;;;;;5035505;28;20463;-69
2023/08/19 10:23:40;;;;;;;3.70;3.50;;;24.30;55.00;;;;;;5039301;28;21013;-68
2023/08/19 10:26:06;;;;;;;4.67;3.07;;;24.30;55.00;;;;;;5033517;28;20462;-69
2023/08/19 10:28:33;;;;;;;3.33;3.13;;;24.30;55.00;;;;;;5032514;28;20479;-69
2023/08/19 10:31:06;;;;;;;4.10;3.80;;;24.30;55.00;;;;;;5029372;28;21006;-69
2023/08/19 10:33:39;;;;;;;3.63;3.43;;;24.30;55.00;;;;;;5028357;28;20506;-69
2023/08/19 10:36:06;;;;;;;3.40;3.10;;;24.30;55.00;;;;;;5010648;28;20474;-69
2023/08/19 10:38:42;;;;;;;3.77;3.57;;;24.30;55.70;;;;;;5029211;28;20551;-69
2023/08/19 10:41:27;;;;;;;2.90;2.80;;;24.30;55.00;;;;;;5029973;28;20781;-69
2023/08/19 10:43:53;;;;;;;3.37;3.17;;;24.30;54.90;;;;;;5014125;28;21273;-70
2023/08/19 10:46:19;;;;;;;4.07;3.87;;;24.30;55.00;;;;;;5006022;28;21011;-70
2023/08/19 10:48:46;;;;;;;3.47;3.27;;;24.30;55.00;;;;;;5030772;28;20483;-69
2023/08/19 10:51:11;;;;;;;3.67;3.47;;;24.30;55.00;;;;;;5035891;28;20226;-69
2023/08/19 10:53:37;;;;;;;4.00;3.60;;;24.30;55.00;;;;;;5032335;28;20458;-70
2023/08/19 10:56:12;;;;;;;3.90;3.70;;;24.30;55.00;;;;;;5017758;28;20218;-70
2023/08/19 10:58:38;;;;;;;3.90;3.70;;;24.30;55.00;;;;;;5027146;28;20225;-70
2023/08/19 11:01:04;;;;;;;3.80;3.60;;;24.30;55.00;;;;;;5026132;28;20473;-70
2023/08/19 11:03:30;;;;;;;4.17;3.87;;;24.30;55.80;;;;;;5025948;28;20468;-70
2023/08/19 11:05:56;;;;;;;3.77;3.57;;;24.30;55.00;;;;;;5027124;28;20584;-69
2023/08/19 11:08:22;;;;;;;3.97;3.77;;;24.30;55.00;;;;;;5026112;28;20280;-70
2023/08/19 11:10:48;;;;;;;4.10;3.90;;;24.30;55.00;;;;;;5030213;28;20229;-70
2023/08/19 11:13:15;;;;;;;3.57;3.37;;;24.30;55.00;;;;;;5024402;28;20470;-69
2023/08/19 11:15:41;;;;;;;3.70;3.50;;;24.30;55.10;;;;;;5024728;28;20230;-69
2023/08/19 11:18:06;;;;;;;4.10;3.90;;;24.30;55.80;;;;;;5029017;28;20545;-69
2023/08/19 11:20:32;;;;;;;3.60;3.40;;;24.30;55.00;;;;;;5010851;28;21728;-70
2023/08/19 11:22:58;;;;;;;3.90;3.70;;;24.30;55.00;;;;;;5027990;28;20248;-69
2023/08/19 11:25:34;;;;;;;4.13;3.90;;;24.30;55.00;;;;;;5030343;28;20938;-71
2023/08/19 11:27:59;;;;;;;3.60;3.40;;;24.30;55.10;;;;;;5009642;28;20988;-70
2023/08/19 11:30:26;;;;;;;4.27;3.97;;;24.30;55.00;;;;;;5005814;28;20644;-70
2023/08/19 11:32:51;;;;;;;3.80;3.50;;;24.30;55.00;;;;;;5025410;28;20287;-71
2023/08/19 11:35:17;;;;;;;4.00;3.80;;;24.30;55.00;;;;;;5025112;28;20455;-73
2023/08/19 11:37:43;;;;;;;3.90;3.70;;;24.30;55.80;;;;;;5029354;28;20234;-71
2023/08/19 11:40:09;;;;;;;4.17;3.97;;;24.30;55.00;;;;;;5002466;28;20234;-69
2023/08/19 11:42:35;;;;;;;3.77;3.57;;;24.30;55.00;;;;;;5018274;28;20558;-70
2023/08/19 11:45:00;;;;;;;4.37;4.07;;;24.30;55.10;;;;;;5021213;28;20591;-70
2023/08/19 11:47:29;;;;;;;3.90;3.70;;;24.30;55.00;;;;;;5018996;28;20228;-71
2023/08/19 11:49:55;;;;;;;4.43;4.23;;;24.30;55.10;;;;;;5030324;28;20222;-71
2023/08/19 11:52:21;;;;;;;4.30;4.10;;;24.30;55.10;;;;;;5029814;28;21204;-71
2023/08/19 11:55:03;;;;;;;4.33;4.13;;;24.30;55.00;;;;;;5012913;28;20685;-71
2023/08/19 11:57:33;;;;;;;3.97;3.77;;;24.30;55.00;;;;;;5012146;28;20718;-71
2023/08/19 11:59:59;;;;;;;4.03;3.83;;;24.30;55.10;;;;;;5029236;28;20487;-71
2023/08/19 12:02:24;;;;;;;4.13;3.80;;;24.30;55.10;;;;;;5030748;28;20977;-71
2023/08/19 12:04:53;;;;;;;4.27;4.07;;;24.30;55.10;;;;;;5014417;28;20211;-71
2023/08/19 12:07:30;;;;;;;3.83;3.63;;;24.30;55.00;;;;;;5029037;28;20305;-71
2023/08/19 12:09:57;;;;;;;4.20;4.00;;;24.30;55.00;;;;;;5028986;28;20442;-71
2023/08/19 12:12:23;;;;;;;4.10;3.90;;;24.30;55.10;;;;;;5008202;28;20487;-71
2023/08/19 12:14:48;;;;;;;4.30;4.10;;;24.30;55.00;;;;;;5029060;28;20562;-70
2023/08/19 12:17:14;;;;;;;4.23;4.03;;;24.30;55.00;;;;;;5028169;28;20221;-71
2023/08/19 12:19:39;;;;;;;5.10;4.80;;;24.30;55.00;;;;;;5023241;28;20233;-71
2023/08/19 12:22:05;;;;;;;4.63;4.33;;;24.30;55.00;;;;;;5027169;28;20704;-72
2023/08/19 12:24:31;;;;;;;4.43;4.23;;;24.30;55.00;;;;;;5020207;28;20309;-72
2023/08/19 12:26:56;;;;;;;4.10;3.90;;;24.30;55.00;;;;;;5026824;28;20908;-72
2023/08/19 12:29:22;;;;;;;4.10;3.90;;;24.30;55.00;;;;;;5031867;28;20276;-70
2023/08/19 12:31:48;;;;;;;4.40;4.20;;;24.30;55.00;;;;;;5033878;28;20271;-71
2023/08/19 12:34:15;;;;;;;3.90;3.70;;;24.30;55.00;;;;;;5031185;28;20221;-70
2023/08/19 12:36:40;;;;;;;4.77;4.50;;;24.30;55.00;;;;;;5029577;28;20712;-72
2023/08/19 12:39:06;;;;;;;5.20;5.00;;;24.30;55.10;;;;;;5033242;28;20459;-71
2023/08/19 12:41:31;;;;;;;4.40;4.20;;;24.30;55.10;;;;;;5031399;28;20224;-71
2023/08/19 12:43:57;;;;;;;5.30;4.90;;;24.30;55.00;;;;;;5034105;28;20672;-70
2023/08/19 12:46:22;;;;;;;4.97;4.57;;;24.30;55.10;;;;;;5017195;28;20234;-70